createdAt,value
2017-07-29T00:00:09.434Z,17.24
2017-07-29T00:01:10.147Z,17.26
2017-07-29T00:02:10.856Z,17.31
2017-07-29T00:03:11.801Z,17.23
2017-07-29T00:04:12.501Z,17.33
2017-07-29T00:05:13.201Z,17.22
2017-07-29T00:06:13.901Z,17.39
2017-07-29T00:07:14.599Z,17.23
2017-07-29T00:08:15.550Z,17.26
2017-07-29T00:09:16.260Z,17.26
2017-07-29T00:10:16.960Z,17.30
2017-07-29T00:11:17.663Z,17.24
2017-07-29T00:12:18.366Z,17.22
2017-07-29T00:13:19.323Z,17.23
2017-07-29T00:14:20.021Z,17.20
2017-07-29T00:15:20.730Z,17.15
2017-07-29T00:16:21.432Z,17.19
2017-07-29T00:17:22.133Z,17.11
2017-07-29T00:18:23.088Z,17.14
2017-07-29T00:19:23.786Z,17.15
2017-07-29T00:20:24.480Z,17.08
2017-07-29T00:21:25.181Z,17.08
2017-07-29T00:22:25.878Z,16.99
2017-07-29T00:23:26.824Z,16.99
2017-07-29T00:24:27.521Z,17.06
2017-07-29T00:25:28.224Z,17.11
2017-07-29T00:26:28.922Z,17.01
2017-07-29T00:27:29.622Z,16.97
2017-07-29T00:28:30.569Z,17.04
2017-07-29T00:29:31.270Z,17.01
2017-07-29T00:30:31.971Z,17.06
2017-07-29T00:31:32.677Z,17.01
2017-07-29T00:32:33.384Z,17.05
2017-07-29T00:33:34.336Z,17.04
2017-07-29T00:34:35.035Z,17.02
2017-07-29T00:35:35.737Z,17.08
2017-07-29T00:36:36.437Z,17.09
2017-07-29T00:37:37.136Z,17.09
2017-07-29T00:38:38.086Z,17.08
2017-07-29T00:39:38.787Z,17.06
2017-07-29T00:40:39.485Z,17.05
2017-07-29T00:41:40.189Z,17.06
2017-07-29T00:42:40.889Z,16.99
2017-07-29T00:43:41.890Z,17.06
2017-07-29T00:44:42.588Z,17.05
2017-07-29T00:45:43.286Z,17.11
2017-07-29T00:46:43.986Z,17.04
2017-07-29T00:47:44.686Z,17.01
2017-07-29T00:48:45.641Z,17.08
2017-07-29T00:49:46.346Z,17.04
2017-07-29T00:50:47.044Z,17.05
2017-07-29T00:51:47.738Z,17.04
2017-07-29T00:52:48.437Z,17.08
2017-07-29T00:53:49.386Z,17.06
2017-07-29T00:54:50.087Z,16.96
2017-07-29T00:55:50.791Z,16.89
2017-07-29T00:56:51.489Z,16.94
2017-07-29T00:57:52.189Z,17.04
2017-07-29T00:58:53.140Z,16.97
2017-07-29T00:59:53.839Z,16.89
2017-07-29T01:00:54.538Z,16.89
2017-07-29T01:01:55.244Z,16.90
2017-07-29T01:02:55.946Z,16.79
2017-07-29T01:03:56.901Z,16.75
2017-07-29T01:04:57.600Z,16.76
2017-07-29T01:05:58.311Z,16.76
2017-07-29T01:06:59.010Z,16.75
2017-07-29T01:07:59.716Z,16.71
2017-07-29T01:09:00.417Z,16.66
2017-07-29T01:10:01.115Z,16.72
2017-07-29T01:11:01.812Z,16.68
2017-07-29T01:12:02.514Z,16.72
2017-07-29T01:13:03.221Z,16.76
2017-07-29T01:14:04.172Z,16.76
2017-07-29T01:15:04.872Z,16.69
2017-07-29T01:16:05.571Z,16.64
2017-07-29T01:17:06.272Z,16.66
2017-07-29T01:18:06.972Z,16.68
2017-07-29T01:19:07.922Z,16.69
2017-07-29T01:20:08.623Z,16.58
2017-07-29T01:21:09.323Z,16.60
2017-07-29T01:22:10.025Z,16.65
2017-07-29T01:23:10.734Z,16.57
2017-07-29T01:24:11.680Z,16.50
2017-07-29T01:25:12.378Z,16.60
2017-07-29T01:26:13.082Z,16.53
2017-07-29T01:27:13.783Z,16.57
2017-07-29T01:28:14.484Z,16.53
2017-07-29T01:29:15.434Z,16.60
2017-07-29T01:30:16.132Z,16.47
2017-07-29T01:31:16.831Z,16.47
2017-07-29T01:32:17.532Z,16.49
2017-07-29T01:33:18.235Z,16.36
2017-07-29T01:34:19.186Z,16.39
2017-07-29T01:35:19.887Z,16.29
2017-07-29T01:36:20.584Z,16.33
2017-07-29T01:37:21.283Z,16.33
2017-07-29T01:38:21.983Z,16.31
2017-07-29T01:39:22.934Z,16.29
2017-07-29T01:40:23.636Z,16.36
2017-07-29T01:41:24.336Z,16.32
2017-07-29T01:42:25.037Z,16.21
2017-07-29T01:43:25.733Z,16.23
2017-07-29T01:44:26.685Z,16.21
2017-07-29T01:45:27.382Z,16.21
2017-07-29T01:46:28.096Z,16.28
2017-07-29T01:47:28.798Z,16.24
2017-07-29T01:48:29.501Z,16.23
2017-07-29T01:49:30.501Z,16.29
2017-07-29T01:50:31.198Z,16.31
2017-07-29T01:51:31.896Z,16.16
2017-07-29T01:52:32.593Z,16.24
2017-07-29T01:53:33.294Z,16.28
2017-07-29T01:54:33.993Z,16.26
2017-07-29T01:55:34.692Z,16.23
2017-07-29T01:56:35.401Z,16.13
2017-07-29T01:57:36.107Z,16.21
2017-07-29T01:58:36.803Z,16.26
2017-07-29T01:59:37.760Z,16.23
2017-07-29T02:00:38.454Z,16.10
2017-07-29T02:01:39.149Z,16.13
2017-07-29T02:02:39.849Z,16.20
2017-07-29T02:03:40.548Z,16.13
2017-07-29T02:04:41.493Z,16.12
2017-07-29T02:05:42.195Z,16.10
2017-07-29T02:06:42.896Z,16.09
2017-07-29T02:07:43.596Z,16.05
2017-07-29T02:08:44.298Z,16.05
2017-07-29T02:09:45.249Z,16.05
2017-07-29T02:10:45.947Z,16.04
2017-07-29T02:11:46.647Z,16.01
2017-07-29T02:12:47.346Z,16.02
2017-07-29T02:13:48.046Z,16.04
2017-07-29T02:14:48.996Z,16.01
2017-07-29T02:15:49.697Z,15.97
2017-07-29T02:16:50.393Z,16.01
2017-07-29T02:17:51.091Z,15.98
2017-07-29T02:18:51.789Z,15.91
2017-07-29T02:19:52.738Z,15.91
2017-07-29T02:20:53.441Z,15.90
2017-07-29T02:21:54.140Z,15.91
2017-07-29T02:22:54.835Z,15.84
2017-07-29T02:23:55.538Z,15.92
2017-07-29T02:24:56.492Z,15.92
2017-07-29T02:25:57.189Z,15.92
2017-07-29T02:26:57.893Z,15.95
2017-07-29T02:27:58.593Z,15.83
2017-07-29T02:28:59.293Z,15.88
2017-07-29T02:30:00.247Z,15.86
2017-07-29T02:31:00.950Z,15.86
2017-07-29T02:32:01.647Z,15.83
2017-07-29T02:33:02.347Z,15.91
2017-07-29T02:34:03.047Z,15.84
2017-07-29T02:35:03.997Z,15.86
2017-07-29T02:36:04.693Z,15.92
2017-07-29T02:37:05.392Z,15.75
2017-07-29T02:38:06.093Z,15.67
2017-07-29T02:39:06.795Z,15.76
2017-07-29T02:40:07.765Z,15.73
2017-07-29T02:41:08.469Z,15.70
2017-07-29T02:42:09.167Z,15.72
2017-07-29T02:43:09.866Z,15.73
2017-07-29T02:44:10.565Z,15.73
2017-07-29T02:45:11.515Z,15.75
2017-07-29T02:46:12.217Z,15.67
2017-07-29T02:47:12.918Z,15.75
2017-07-29T02:48:13.629Z,15.72
2017-07-29T02:49:14.333Z,15.76
2017-07-29T02:50:15.280Z,15.79
2017-07-29T02:51:15.977Z,15.76
2017-07-29T02:52:16.674Z,15.72
2017-07-29T02:53:17.373Z,15.76
2017-07-29T02:54:18.071Z,15.61
2017-07-29T02:55:19.029Z,15.67
2017-07-29T02:56:19.730Z,15.61
2017-07-29T02:57:20.430Z,15.58
2017-07-29T02:58:21.129Z,15.65
2017-07-29T02:59:21.828Z,15.51
2017-07-29T03:00:22.778Z,15.52
2017-07-29T03:01:23.479Z,15.54
2017-07-29T03:02:24.179Z,15.44
2017-07-29T03:03:24.881Z,15.44
2017-07-29T03:04:25.579Z,15.40
2017-07-29T03:05:26.533Z,15.39
2017-07-29T03:06:27.234Z,15.39
2017-07-29T03:07:27.937Z,15.33
2017-07-29T03:08:28.638Z,15.40
2017-07-29T03:09:29.341Z,15.33
2017-07-29T03:10:30.345Z,15.29
2017-07-29T03:11:31.046Z,15.21
2017-07-29T03:12:31.745Z,15.24
2017-07-29T03:13:32.451Z,15.31
2017-07-29T03:14:33.157Z,15.22
2017-07-29T03:15:34.107Z,15.29
2017-07-29T03:16:34.806Z,15.19
2017-07-29T03:17:35.506Z,15.25
2017-07-29T03:18:36.206Z,15.24
2017-07-29T03:19:36.902Z,15.22
2017-07-29T03:20:37.852Z,15.24
2017-07-29T03:21:38.551Z,15.09
2017-07-29T03:22:39.253Z,15.21
2017-07-29T03:23:39.957Z,15.24
2017-07-29T03:24:40.663Z,15.19
2017-07-29T03:25:41.614Z,15.24
2017-07-29T03:26:42.312Z,15.19
2017-07-29T03:27:43.010Z,15.14
2017-07-29T03:28:43.710Z,15.21
2017-07-29T03:29:44.409Z,15.24
2017-07-29T03:30:45.355Z,15.25
2017-07-29T03:31:46.055Z,15.25
2017-07-29T03:32:46.753Z,15.28
2017-07-29T03:33:47.455Z,15.22
2017-07-29T03:34:48.151Z,15.31
2017-07-29T03:35:49.099Z,15.24
2017-07-29T03:36:49.799Z,15.28
2017-07-29T03:37:50.497Z,15.33
2017-07-29T03:38:51.197Z,15.24
2017-07-29T03:39:51.899Z,15.27
2017-07-29T03:40:52.848Z,15.29
2017-07-29T03:41:53.552Z,15.22
2017-07-29T03:42:54.254Z,15.22
2017-07-29T03:43:54.952Z,15.24
2017-07-29T03:44:55.690Z,15.18
2017-07-29T03:45:56.640Z,15.21
2017-07-29T03:46:57.343Z,15.25
2017-07-29T03:47:58.044Z,15.22
2017-07-29T03:48:58.748Z,15.24
2017-07-29T03:49:59.459Z,15.24
2017-07-29T03:51:00.415Z,15.21
2017-07-29T03:52:01.116Z,15.25
2017-07-29T03:53:01.815Z,15.25
2017-07-29T03:54:02.517Z,15.22
2017-07-29T03:55:03.222Z,15.24
2017-07-29T03:56:04.072Z,15.24
2017-07-29T03:57:04.772Z,15.24
2017-07-29T03:58:05.478Z,15.21
2017-07-29T03:59:06.182Z,15.06
2017-07-29T04:00:06.882Z,15.11
2017-07-29T04:01:07.833Z,15.07
2017-07-29T04:02:08.534Z,15.04
2017-07-29T04:03:09.239Z,15.07
2017-07-29T04:04:09.941Z,14.96
2017-07-29T04:05:10.641Z,15.07
2017-07-29T04:06:11.599Z,15.07
2017-07-29T04:07:12.299Z,15.06
2017-07-29T04:08:13.001Z,15.07
2017-07-29T04:09:13.704Z,15.04
2017-07-29T04:10:14.405Z,15.07
2017-07-29T04:11:15.407Z,15.09
2017-07-29T04:12:16.109Z,15.10
2017-07-29T04:13:16.805Z,15.07
2017-07-29T04:14:17.505Z,15.06
2017-07-29T04:15:18.205Z,15.07
2017-07-29T04:16:19.158Z,15.14
2017-07-29T04:17:19.860Z,15.15
2017-07-29T04:18:20.561Z,15.10
2017-07-29T04:19:21.265Z,15.10
2017-07-29T04:20:21.968Z,15.11
2017-07-29T04:21:22.918Z,15.07
2017-07-29T04:22:23.616Z,15.06
2017-07-29T04:23:24.313Z,15.10
2017-07-29T04:24:25.014Z,15.06
2017-07-29T04:25:25.715Z,15.03
2017-07-29T04:26:26.679Z,15.14
2017-07-29T04:27:27.381Z,15.09
2017-07-29T04:28:28.077Z,15.15
2017-07-29T04:29:28.778Z,15.10
2017-07-29T04:30:29.485Z,15.11
2017-07-29T04:31:30.443Z,15.06
2017-07-29T04:32:31.145Z,15.07
2017-07-29T04:33:31.848Z,15.10
2017-07-29T04:34:32.553Z,15.15
2017-07-29T04:35:33.256Z,15.14
2017-07-29T04:36:34.204Z,15.22
2017-07-29T04:37:34.911Z,15.24
2017-07-29T04:38:35.612Z,15.22
2017-07-29T04:39:36.314Z,15.31
2017-07-29T04:40:37.019Z,15.29
2017-07-29T04:41:38.022Z,15.33
2017-07-29T04:42:38.728Z,15.31
2017-07-29T04:43:39.429Z,15.28
2017-07-29T04:44:40.130Z,15.35
2017-07-29T04:45:40.828Z,15.25
2017-07-29T04:46:41.777Z,15.28
2017-07-29T04:47:42.479Z,15.28
2017-07-29T04:48:43.179Z,15.33
2017-07-29T04:49:43.878Z,15.40
2017-07-29T04:50:44.587Z,15.36
2017-07-29T04:51:45.536Z,15.36
2017-07-29T04:52:46.238Z,15.36
2017-07-29T04:53:46.940Z,15.37
2017-07-29T04:54:47.641Z,15.43
2017-07-29T04:55:48.340Z,15.49
2017-07-29T04:56:49.041Z,15.51
2017-07-29T04:57:49.751Z,15.52
2017-07-29T04:58:50.449Z,15.54
2017-07-29T04:59:51.159Z,15.65
2017-07-29T05:00:51.858Z,15.58
2017-07-29T05:01:52.812Z,15.59
2017-07-29T05:02:53.514Z,15.68
2017-07-29T05:03:54.216Z,15.68
2017-07-29T05:04:54.916Z,15.64
2017-07-29T05:05:55.620Z,15.72
2017-07-29T05:06:56.570Z,15.77
2017-07-29T05:07:57.279Z,15.79
2017-07-29T05:08:57.983Z,15.77
2017-07-29T05:09:58.687Z,15.77
2017-07-29T05:10:59.389Z,15.80
2017-07-29T05:12:00.190Z,15.83
2017-07-29T05:13:00.892Z,15.84
2017-07-29T05:14:01.597Z,15.83
2017-07-29T05:15:02.301Z,15.84
2017-07-29T05:16:03.008Z,15.91
2017-07-29T05:17:03.960Z,15.92
2017-07-29T05:18:04.661Z,15.88
2017-07-29T05:19:05.365Z,15.92
2017-07-29T05:20:06.075Z,16.01
2017-07-29T05:21:06.776Z,15.98
2017-07-29T05:22:07.728Z,16.02
2017-07-29T05:23:08.438Z,15.97
2017-07-29T05:24:09.144Z,16.02
2017-07-29T05:25:09.846Z,16.08
2017-07-29T05:26:10.550Z,16.05
2017-07-29T05:27:11.508Z,16.04
2017-07-29T05:28:12.224Z,16.13
2017-07-29T05:29:12.932Z,16.12
2017-07-29T05:30:13.637Z,16.17
2017-07-29T05:31:14.357Z,16.28
2017-07-29T05:32:15.312Z,16.20
2017-07-29T05:33:16.013Z,16.15
2017-07-29T05:34:16.724Z,16.16
2017-07-29T05:35:17.429Z,16.20
2017-07-29T05:36:18.131Z,16.20
2017-07-29T05:37:19.086Z,16.17
2017-07-29T05:38:19.793Z,16.16
2017-07-29T05:39:20.500Z,16.23
2017-07-29T05:40:21.202Z,16.23
2017-07-29T05:41:21.904Z,16.24
2017-07-29T05:42:22.910Z,16.26
2017-07-29T05:43:23.611Z,16.29
2017-07-29T05:44:24.313Z,16.26
2017-07-29T05:45:25.013Z,16.24
2017-07-29T05:46:25.712Z,16.33
2017-07-29T05:47:26.665Z,16.28
2017-07-29T05:48:27.373Z,16.17
2017-07-29T05:49:28.073Z,16.20
2017-07-29T05:50:28.781Z,16.32
2017-07-29T05:51:29.484Z,16.32
2017-07-29T05:52:30.485Z,16.23
2017-07-29T05:53:31.185Z,16.23
2017-07-29T05:54:31.885Z,16.28
2017-07-29T05:55:32.595Z,16.24
2017-07-29T05:56:33.296Z,16.24
2017-07-29T05:57:34.249Z,16.17
2017-07-29T05:58:34.951Z,16.28
2017-07-29T05:59:35.652Z,16.33
2017-07-29T06:00:36.364Z,16.36
2017-07-29T06:01:37.071Z,16.36
2017-07-29T06:02:38.039Z,16.38
2017-07-29T06:03:38.748Z,16.43
2017-07-29T06:04:39.452Z,16.53
2017-07-29T06:05:40.154Z,16.49
2017-07-29T06:06:40.863Z,16.47
2017-07-29T06:07:41.825Z,16.58
2017-07-29T06:08:42.530Z,16.49
2017-07-29T06:09:43.231Z,16.58
2017-07-29T06:10:43.939Z,16.58
2017-07-29T06:11:44.652Z,16.60
2017-07-29T06:12:45.604Z,16.72
2017-07-29T06:13:46.306Z,16.74
2017-07-29T06:14:47.008Z,16.76
2017-07-29T06:15:47.716Z,16.75
2017-07-29T06:16:48.421Z,16.76
2017-07-29T06:17:49.374Z,16.79
2017-07-29T06:18:50.083Z,16.93
2017-07-29T06:19:50.785Z,16.90
2017-07-29T06:20:51.490Z,16.99
2017-07-29T06:21:52.190Z,17.02
2017-07-29T06:22:53.140Z,17.04
2017-07-29T06:23:53.848Z,17.01
2017-07-29T06:24:54.554Z,17.01
2017-07-29T06:25:55.256Z,17.11
2017-07-29T06:26:55.962Z,17.08
2017-07-29T06:27:56.912Z,17.02
2017-07-29T06:28:57.622Z,17.06
2017-07-29T06:29:58.346Z,17.14
2017-07-29T06:30:59.050Z,17.15
2017-07-29T06:31:59.751Z,17.24
2017-07-29T06:33:00.753Z,17.24
2017-07-29T06:34:01.454Z,17.20
2017-07-29T06:35:02.156Z,17.22
2017-07-29T06:36:02.859Z,17.23
2017-07-29T06:37:03.570Z,17.31
2017-07-29T06:38:04.522Z,17.30
2017-07-29T06:39:05.220Z,17.38
2017-07-29T06:40:05.920Z,17.34
2017-07-29T06:41:06.626Z,17.27
2017-07-29T06:42:07.325Z,17.39
2017-07-29T06:43:08.328Z,17.45
2017-07-29T06:44:09.046Z,17.48
2017-07-29T06:45:09.758Z,17.49
2017-07-29T06:46:10.466Z,17.57
2017-07-29T06:47:11.174Z,17.57
2017-07-29T06:48:12.130Z,17.63
2017-07-29T06:49:12.830Z,17.56
2017-07-29T06:50:13.533Z,17.67
2017-07-29T06:51:14.238Z,17.72
2017-07-29T06:52:14.946Z,17.71
2017-07-29T06:53:15.650Z,17.68
2017-07-29T06:54:16.364Z,17.80
2017-07-29T06:55:17.086Z,17.79
2017-07-29T06:56:17.790Z,17.85
2017-07-29T06:57:18.494Z,17.79
2017-07-29T06:58:19.463Z,17.85
2017-07-29T06:59:20.171Z,17.89
2017-07-29T07:00:20.874Z,18.00
2017-07-29T07:01:21.575Z,17.87
2017-07-29T07:02:22.272Z,17.98
2017-07-29T07:03:23.227Z,18.00
2017-07-29T07:04:23.935Z,18.00
2017-07-29T07:05:24.642Z,17.89
2017-07-29T07:06:25.347Z,18.01
2017-07-29T07:07:26.060Z,18.11
2017-07-29T07:08:27.014Z,18.07
2017-07-29T07:09:27.719Z,18.20
2017-07-29T07:10:28.425Z,18.16
2017-07-29T07:11:29.155Z,18.07
2017-07-29T07:12:29.874Z,18.07
2017-07-29T07:13:30.835Z,18.20
2017-07-29T07:14:31.547Z,18.18
2017-07-29T07:15:32.248Z,18.18
2017-07-29T07:16:32.952Z,18.38
2017-07-29T07:17:33.650Z,18.22
2017-07-29T07:18:34.610Z,18.31
2017-07-29T07:19:35.314Z,18.31
2017-07-29T07:20:36.021Z,18.33
2017-07-29T07:21:36.723Z,18.37
2017-07-29T07:22:37.422Z,18.38
2017-07-29T07:23:38.428Z,18.44
2017-07-29T07:24:39.133Z,18.53
2017-07-29T07:25:39.837Z,18.56
2017-07-29T07:26:40.547Z,18.56
2017-07-29T07:27:41.249Z,18.60
2017-07-29T07:28:42.202Z,18.70
2017-07-29T07:29:42.905Z,18.60
2017-07-29T07:30:43.614Z,18.73
2017-07-29T07:31:44.319Z,18.68
2017-07-29T07:32:45.020Z,18.68
2017-07-29T07:33:45.973Z,18.74
2017-07-29T07:34:46.672Z,18.78
2017-07-29T07:35:47.374Z,18.80
2017-07-29T07:36:48.079Z,18.83
2017-07-29T07:37:48.782Z,18.95
2017-07-29T07:38:49.736Z,18.88
2017-07-29T07:39:50.451Z,18.98
2017-07-29T07:40:51.155Z,18.98
2017-07-29T07:41:51.857Z,18.99
2017-07-29T07:42:52.561Z,19.07
2017-07-29T07:43:53.515Z,19.15
2017-07-29T07:44:54.218Z,19.18
2017-07-29T07:45:54.927Z,19.24
2017-07-29T07:46:55.631Z,19.21
2017-07-29T07:47:56.337Z,19.24
2017-07-29T07:48:57.339Z,19.33
2017-07-29T07:49:58.041Z,19.49
2017-07-29T07:50:58.747Z,19.45
2017-07-29T07:51:59.450Z,19.47
2017-07-29T07:53:00.157Z,19.45
2017-07-29T07:54:01.112Z,19.48
2017-07-29T07:55:01.822Z,19.55
2017-07-29T07:56:02.544Z,19.59
2017-07-29T07:57:03.250Z,19.67
2017-07-29T07:58:03.958Z,19.71
2017-07-29T07:59:04.907Z,19.86
2017-07-29T08:00:05.618Z,19.86
2017-07-29T08:01:06.326Z,19.88
2017-07-29T08:02:07.033Z,20.03
2017-07-29T08:03:07.741Z,19.95
2017-07-29T08:04:08.448Z,20.02
2017-07-29T08:05:09.152Z,20.14
2017-07-29T08:06:09.855Z,20.24
2017-07-29T08:07:10.557Z,20.50
2017-07-29T08:08:11.259Z,20.62
2017-07-29T08:09:12.214Z,20.55
2017-07-29T08:10:12.924Z,20.58
2017-07-29T08:11:13.647Z,20.77
2017-07-29T08:12:14.354Z,20.70
2017-07-29T08:13:15.055Z,20.70
2017-07-29T08:14:16.006Z,20.66
2017-07-29T08:15:16.711Z,20.70
2017-07-29T08:16:17.431Z,20.84
2017-07-29T08:17:18.140Z,20.82
2017-07-29T08:18:18.855Z,20.84
2017-07-29T08:19:19.810Z,20.88
2017-07-29T08:20:20.521Z,20.99
2017-07-29T08:21:21.231Z,21.14
2017-07-29T08:22:21.934Z,21.25
2017-07-29T08:23:22.638Z,21.27
2017-07-29T08:24:23.349Z,21.25
2017-07-29T08:25:24.058Z,21.42
2017-07-29T08:26:24.775Z,21.39
2017-07-29T08:27:25.491Z,21.42
2017-07-29T08:28:26.200Z,21.42
2017-07-29T08:29:27.158Z,21.48
2017-07-29T08:30:27.868Z,21.40
2017-07-29T08:31:28.578Z,21.50
2017-07-29T08:32:29.286Z,21.48
2017-07-29T08:33:29.993Z,21.43
2017-07-29T08:34:30.949Z,21.43
2017-07-29T08:35:31.663Z,21.48
2017-07-29T08:36:32.368Z,21.39
2017-07-29T08:37:33.076Z,21.37
2017-07-29T08:38:33.777Z,21.36
2017-07-29T08:39:34.782Z,21.40
2017-07-29T08:40:35.496Z,21.42
2017-07-29T08:41:36.201Z,21.42
2017-07-29T08:42:36.913Z,21.51
2017-07-29T08:43:37.625Z,21.52
2017-07-29T08:44:38.590Z,21.62
2017-07-29T08:45:39.310Z,21.64
2017-07-29T08:46:40.012Z,21.67
2017-07-29T08:47:40.719Z,21.75
2017-07-29T08:48:41.424Z,21.83
2017-07-29T08:49:42.434Z,21.69
2017-07-29T08:50:43.144Z,21.80
2017-07-29T08:51:43.856Z,21.72
2017-07-29T08:52:44.567Z,21.72
2017-07-29T08:53:45.272Z,21.82
2017-07-29T08:54:46.233Z,21.75
2017-07-29T08:55:46.937Z,21.77
2017-07-29T08:56:47.646Z,21.77
2017-07-29T08:57:48.358Z,21.75
2017-07-29T08:58:49.067Z,21.75
2017-07-29T08:59:50.021Z,21.79
2017-07-29T09:00:50.757Z,21.91
2017-07-29T09:01:51.466Z,21.98
2017-07-29T09:02:52.172Z,22.06
2017-07-29T09:03:52.877Z,22.13
2017-07-29T09:04:53.839Z,22.17
2017-07-29T09:05:54.557Z,22.15
2017-07-29T09:06:55.264Z,22.02
2017-07-29T09:07:55.969Z,22.02
2017-07-29T09:08:56.671Z,21.93
2017-07-29T09:09:57.626Z,22.04
2017-07-29T09:10:58.331Z,22.06
2017-07-29T09:11:59.038Z,22.04
2017-07-29T09:12:59.750Z,22.13
2017-07-29T09:14:00.454Z,22.00
2017-07-29T09:15:01.162Z,22.04
2017-07-29T09:16:01.870Z,22.08
2017-07-29T09:17:02.574Z,22.14
2017-07-29T09:18:03.294Z,22.17
2017-07-29T09:19:04.000Z,22.25
2017-07-29T09:20:04.958Z,22.30
2017-07-29T09:21:05.665Z,22.32
2017-07-29T09:22:06.372Z,22.43
2017-07-29T09:23:07.085Z,22.57
2017-07-29T09:24:07.790Z,22.55
2017-07-29T09:25:08.752Z,22.68
2017-07-29T09:26:09.460Z,22.62
2017-07-29T09:27:10.164Z,22.65
2017-07-29T09:28:10.870Z,22.75
2017-07-29T09:29:11.586Z,22.88
2017-07-29T09:30:12.542Z,23.00
2017-07-29T09:31:13.256Z,22.99
2017-07-29T09:32:13.964Z,23.13
2017-07-29T09:33:14.666Z,23.25
2017-07-29T09:34:15.367Z,23.40
2017-07-29T09:35:16.378Z,23.56
2017-07-29T09:36:17.080Z,23.68
2017-07-29T09:37:17.792Z,23.86
2017-07-29T09:38:18.503Z,24.08
2017-07-29T09:39:19.208Z,24.30
2017-07-29T09:40:20.167Z,24.30
2017-07-29T09:41:20.879Z,24.50
2017-07-29T09:42:21.590Z,24.32
2017-07-29T09:43:22.297Z,24.36
2017-07-29T09:44:23.006Z,24.21
2017-07-29T09:45:23.966Z,24.01
2017-07-29T09:46:24.675Z,23.80
2017-07-29T09:47:25.382Z,23.81
2017-07-29T09:48:26.092Z,23.61
2017-07-29T09:49:26.802Z,23.43
2017-07-29T09:50:27.758Z,23.41
2017-07-29T09:51:28.463Z,23.36
2017-07-29T09:52:29.170Z,23.25
2017-07-29T09:53:29.875Z,23.24
2017-07-29T09:54:30.581Z,23.28
2017-07-29T09:55:31.538Z,23.40
2017-07-29T09:56:32.251Z,23.46
2017-07-29T09:57:32.955Z,23.50
2017-07-29T09:58:33.664Z,23.56
2017-07-29T09:59:34.371Z,23.51
2017-07-29T10:00:35.324Z,23.59
2017-07-29T10:01:36.028Z,23.66
2017-07-29T10:02:36.737Z,23.71
2017-07-29T10:03:37.451Z,23.68
2017-07-29T10:04:38.160Z,23.65
2017-07-29T10:05:39.122Z,23.68
2017-07-29T10:06:39.826Z,23.65
2017-07-29T10:07:40.546Z,23.68
2017-07-29T10:08:41.250Z,23.65
2017-07-29T10:09:41.961Z,23.58
2017-07-29T10:10:42.923Z,23.56
2017-07-29T10:11:43.627Z,23.48
2017-07-29T10:12:44.333Z,23.68
2017-07-29T10:13:45.041Z,23.78
2017-07-29T10:14:45.751Z,23.88
2017-07-29T10:15:46.718Z,23.96
2017-07-29T10:16:47.427Z,24.23
2017-07-29T10:17:48.156Z,24.38
2017-07-29T10:18:48.866Z,24.47
2017-07-29T10:19:49.576Z,24.50
2017-07-29T10:20:50.540Z,24.45
2017-07-29T10:21:51.244Z,24.47
2017-07-29T10:22:51.948Z,24.43
2017-07-29T10:23:52.655Z,24.51
2017-07-29T10:24:53.366Z,24.61
2017-07-29T10:25:54.331Z,24.65
2017-07-29T10:26:55.042Z,24.65
2017-07-29T10:27:55.752Z,24.54
2017-07-29T10:28:56.457Z,24.48
2017-07-29T10:29:57.166Z,24.51
2017-07-29T10:30:58.130Z,24.63
2017-07-29T10:31:58.849Z,24.73
2017-07-29T10:32:59.573Z,24.66
2017-07-29T10:34:00.288Z,24.65
2017-07-29T10:35:00.997Z,24.53
2017-07-29T10:36:01.952Z,24.50
2017-07-29T10:37:02.661Z,24.45
2017-07-29T10:38:03.367Z,24.54
2017-07-29T10:39:04.078Z,24.65
2017-07-29T10:40:04.785Z,24.70
2017-07-29T10:41:05.747Z,24.85
2017-07-29T10:42:06.461Z,24.89
2017-07-29T10:43:07.179Z,24.93
2017-07-29T10:44:07.884Z,24.93
2017-07-29T10:45:08.591Z,25.07
2017-07-29T10:46:09.553Z,25.23
2017-07-29T10:47:10.259Z,25.18
2017-07-29T10:48:10.961Z,25.06
2017-07-29T10:49:11.666Z,25.11
2017-07-29T10:50:12.375Z,25.06
2017-07-29T10:51:13.335Z,25.03
2017-07-29T10:52:14.047Z,25.04
2017-07-29T10:53:14.757Z,25.21
2017-07-29T10:54:15.464Z,25.22
2017-07-29T10:55:16.175Z,25.31
2017-07-29T10:56:17.135Z,25.35
2017-07-29T10:57:17.851Z,25.46
2017-07-29T10:58:18.559Z,25.47
2017-07-29T10:59:19.265Z,25.63
2017-07-29T11:00:19.981Z,25.73
2017-07-29T11:01:20.937Z,25.68
2017-07-29T11:02:21.646Z,25.75
2017-07-29T11:03:22.365Z,25.93
2017-07-29T11:04:23.321Z,26.06
2017-07-29T11:05:24.037Z,26.16
2017-07-29T11:06:25.002Z,26.19
2017-07-29T11:07:25.711Z,26.18
2017-07-29T11:08:26.430Z,26.19
2017-07-29T11:09:27.140Z,26.18
2017-07-29T11:10:27.853Z,26.19
2017-07-29T11:11:28.820Z,26.05
2017-07-29T11:12:29.528Z,25.93
2017-07-29T11:13:30.238Z,25.95
2017-07-29T11:14:30.946Z,26.00
2017-07-29T11:15:31.653Z,26.23
2017-07-29T11:16:32.614Z,26.41
2017-07-29T11:17:33.324Z,26.36
2017-07-29T11:18:34.037Z,26.19
2017-07-29T11:19:34.757Z,26.26
2017-07-29T11:20:35.473Z,26.23
2017-07-29T11:21:36.439Z,26.31
2017-07-29T11:22:37.148Z,26.37
2017-07-29T11:23:37.856Z,26.77
2017-07-29T11:24:38.574Z,26.65
2017-07-29T11:25:39.294Z,26.53
2017-07-29T11:26:40.252Z,26.56
2017-07-29T11:27:40.956Z,26.65
2017-07-29T11:28:41.672Z,26.83
2017-07-29T11:29:42.394Z,26.85
2017-07-29T11:30:43.106Z,27.17
2017-07-29T11:31:44.066Z,27.29
2017-07-29T11:32:44.781Z,26.92
2017-07-29T11:33:45.494Z,27.00
2017-07-29T11:34:46.209Z,26.95
2017-07-29T11:35:46.918Z,27.00
2017-07-29T11:36:47.881Z,26.83
2017-07-29T11:37:48.587Z,26.83
2017-07-29T11:38:49.300Z,26.89
2017-07-29T11:39:50.011Z,26.88
2017-07-29T11:40:50.720Z,26.71
2017-07-29T11:41:51.733Z,26.81
2017-07-29T11:42:52.441Z,26.60
2017-07-29T11:43:53.150Z,26.65
2017-07-29T11:44:53.859Z,26.75
2017-07-29T11:45:54.577Z,26.99
2017-07-29T11:46:55.533Z,27.33
2017-07-29T11:47:56.241Z,27.49
2017-07-29T11:48:56.959Z,27.68
2017-07-29T11:49:57.668Z,27.64
2017-07-29T11:50:58.393Z,27.64
2017-07-29T11:51:59.404Z,27.87
2017-07-29T11:53:00.130Z,28.08
2017-07-29T11:54:00.841Z,28.23
2017-07-29T11:55:01.552Z,28.19
2017-07-29T11:56:02.265Z,28.25
2017-07-29T11:57:03.277Z,28.26
2017-07-29T11:58:03.987Z,28.23
2017-07-29T11:59:04.696Z,28.35
2017-07-29T12:00:05.410Z,28.27
2017-07-29T12:01:06.125Z,27.89
2017-07-29T12:02:07.139Z,28.10
2017-07-29T12:03:07.850Z,28.15
2017-07-29T12:04:08.564Z,28.20
2017-07-29T12:05:09.284Z,28.25
2017-07-29T12:06:09.996Z,27.86
2017-07-29T12:07:10.956Z,27.78
2017-07-29T12:08:11.668Z,27.54
2017-07-29T12:09:12.379Z,27.87
2017-07-29T12:10:13.093Z,28.17
2017-07-29T12:11:13.811Z,28.26
2017-07-29T12:12:14.785Z,28.37
2017-07-29T12:13:15.500Z,28.47
2017-07-29T12:14:16.216Z,28.45
2017-07-29T12:15:16.925Z,28.45
2017-07-29T12:16:17.633Z,28.45
2017-07-29T12:17:18.598Z,28.69
2017-07-29T12:18:19.313Z,28.66
2017-07-29T12:19:20.021Z,28.82
2017-07-29T12:20:20.737Z,28.72
2017-07-29T12:21:21.448Z,28.91
2017-07-29T12:22:22.410Z,28.74
2017-07-29T12:23:23.119Z,28.74
2017-07-29T12:24:23.834Z,28.93
2017-07-29T12:25:24.547Z,29.10
2017-07-29T12:26:25.263Z,28.91
2017-07-29T12:27:26.225Z,28.94
2017-07-29T12:28:26.935Z,29.23
2017-07-29T12:29:27.647Z,29.29
2017-07-29T12:30:28.359Z,29.22
2017-07-29T12:31:29.072Z,29.27
2017-07-29T12:32:29.789Z,29.41
2017-07-29T12:33:30.504Z,29.16
2017-07-29T12:34:31.229Z,28.78
2017-07-29T12:35:31.943Z,28.85
2017-07-29T12:36:32.651Z,29.12
2017-07-29T12:37:33.415Z,29.17
2017-07-29T12:38:34.129Z,29.08
2017-07-29T12:39:34.839Z,28.70
2017-07-29T12:40:35.549Z,28.41
2017-07-29T12:41:36.259Z,28.62
2017-07-29T12:42:36.973Z,28.60
2017-07-29T12:43:37.683Z,28.70
2017-07-29T12:44:38.395Z,28.88
2017-07-29T12:45:39.127Z,29.23
2017-07-29T12:46:39.838Z,29.34
2017-07-29T12:47:40.545Z,29.31
2017-07-29T12:48:41.254Z,29.29
2017-07-29T12:49:41.964Z,29.16
2017-07-29T12:50:42.673Z,28.97
2017-07-29T12:51:43.388Z,29.31
2017-07-29T12:52:44.101Z,29.22
2017-07-29T12:53:45.083Z,29.23
2017-07-29T12:54:45.793Z,29.38
2017-07-29T12:55:46.508Z,29.26
2017-07-29T12:56:47.233Z,29.53
2017-07-29T12:57:47.967Z,29.69
2017-07-29T12:58:48.981Z,29.91
2017-07-29T12:59:49.695Z,29.78
2017-07-29T13:00:50.407Z,29.78
2017-07-29T13:01:51.120Z,29.97